createdAt,value
2022-08-17T00:00:42.878Z,13.70
2022-08-17T00:03:30.571Z,12.38
2022-08-17T00:06:26.112Z,12.60
2022-08-17T00:08:57.797Z,14.05
2022-08-17T00:11:28.865Z,19.27
2022-08-17T00:14:03.666Z,11.65
2022-08-17T00:16:51.025Z,15.27
2022-08-17T00:19:25.558Z,12.95
2022-08-17T00:22:34.671Z,18.30
2022-08-17T00:24:45.600Z,15.60
2022-08-17T00:27:13.465Z,12.50
2022-08-17T00:29:42.315Z,14.18
2022-08-17T00:33:15.013Z,12.02
2022-08-17T00:34:58.373Z,20.30
2022-08-17T00:37:26.351Z,17.42
2022-08-17T00:39:54.441Z,16.70
2022-08-17T00:42:22.367Z,11.00
2022-08-17T00:44:50.235Z,12.05
2022-08-17T00:47:18.104Z,13.50
2022-08-17T00:49:46.144Z,12.05
2022-08-17T00:52:20.551Z,15.73
2022-08-17T00:54:52.378Z,14.98
2022-08-17T00:57:28.481Z,17.88
2022-08-17T01:00:02.922Z,16.30
2022-08-17T01:02:42.464Z,15.43
2022-08-17T01:05:18.636Z,18.15
2022-08-17T01:07:50.056Z,13.07
2022-08-17T01:10:59.223Z,16.55
2022-08-17T01:13:12.416Z,10.85
2022-08-17T01:15:47.681Z,16.27
2022-08-17T01:18:16.709Z,9.00
2022-08-17T01:20:50.736Z,12.73
2022-08-17T01:23:21.406Z,16.45
2022-08-17T01:25:55.181Z,13.43
2022-08-17T01:28:33.656Z,18.13
2022-08-17T01:31:13.337Z,11.00
2022-08-17T01:33:42.026Z,11.40
2022-08-17T01:36:10.606Z,15.18
2022-08-17T01:38:40.401Z,14.10
2022-08-17T01:41:15.570Z,11.93
2022-08-17T01:43:56.951Z,14.60
2022-08-17T01:46:28.847Z,14.00
2022-08-17T01:48:57.958Z,12.88
2022-08-17T01:51:32.812Z,17.77
2022-08-17T01:54:05.459Z,14.18
2022-08-17T01:56:35.623Z,13.57
2022-08-17T01:59:04.233Z,13.82
2022-08-17T02:01:33.799Z,16.65
2022-08-17T02:04:02.992Z,11.55
2022-08-17T02:06:52.721Z,11.40
2022-08-17T02:09:25.218Z,14.88
2022-08-17T02:11:56.309Z,15.68
2022-08-17T02:14:25.880Z,13.32
2022-08-17T02:16:54.356Z,16.15
2022-08-17T02:19:22.757Z,17.90
2022-08-17T02:21:53.016Z,17.92
2022-08-17T02:24:58.798Z,10.63
2022-08-17T02:27:13.796Z,12.10
2022-08-17T02:29:41.607Z,15.23
2022-08-17T02:32:27.980Z,11.07
2022-08-17T02:35:01.602Z,15.23
2022-08-17T02:37:31.956Z,15.07
2022-08-17T02:40:00.008Z,16.88
2022-08-17T02:42:33.985Z,11.32
2022-08-17T02:45:03.997Z,20.17
2022-08-17T02:47:31.945Z,13.80
2022-08-17T02:49:59.778Z,13.77
2022-08-17T02:52:41.926Z,13.57
2022-08-17T02:55:24.341Z,13.57
2022-08-17T02:57:53.475Z,15.15
2022-08-17T03:00:30.116Z,15.23
2022-08-17T03:02:58.052Z,14.65
2022-08-17T03:05:29.112Z,11.27
2022-08-17T03:07:57.150Z,17.77
2022-08-17T03:10:25.685Z,14.40
2022-08-17T03:12:54.248Z,14.07
2022-08-17T03:15:26.060Z,11.95
2022-08-17T03:17:55.274Z,14.60
2022-08-17T03:20:24.856Z,12.73
2022-08-17T03:22:55.583Z,14.45
2022-08-17T03:25:39.983Z,12.68
2022-08-17T03:28:14.584Z,16.15
2022-08-17T03:30:42.680Z,15.02
2022-08-17T03:33:10.931Z,11.65
2022-08-17T03:35:40.469Z,18.80
2022-08-17T03:38:10.919Z,15.70
2022-08-17T03:40:57.059Z,22.13
2022-08-17T03:43:32.048Z,15.57
2022-08-17T03:46:28.216Z,15.98
2022-08-17T03:49:26.726Z,15.07
2022-08-17T03:52:14.864Z,15.90
2022-08-17T03:55:52.463Z,11.52
2022-08-17T03:58:20.336Z,11.48
2022-08-17T04:00:48.993Z,16.27
2022-08-17T04:03:17.912Z,15.43
2022-08-17T04:05:45.696Z,14.27
2022-08-17T04:08:13.835Z,17.63
2022-08-17T04:10:45.005Z,20.13
2022-08-17T04:13:13.924Z,14.25
2022-08-17T04:15:41.905Z,11.30
2022-08-17T04:18:11.056Z,9.95
2022-08-17T04:20:38.981Z,14.27
2022-08-17T04:23:11.627Z,14.98
2022-08-17T04:25:43.267Z,12.38
2022-08-17T04:28:16.146Z,13.65
2022-08-17T04:30:45.735Z,16.02
2022-08-17T04:33:17.242Z,18.80
2022-08-17T04:35:48.246Z,13.05
2022-08-17T04:38:24.668Z,16.08
2022-08-17T04:41:11.435Z,16.88
2022-08-17T04:43:41.414Z,14.30
2022-08-17T04:46:14.593Z,14.95
2022-08-17T04:48:50.079Z,11.98
2022-08-17T04:51:23.008Z,15.18
2022-08-17T04:53:57.686Z,14.60
2022-08-17T04:56:27.189Z,15.02
2022-08-17T04:59:00.272Z,13.85
2022-08-17T05:01:31.779Z,13.65
2022-08-17T05:04:21.389Z,14.68
2022-08-17T05:06:50.874Z,9.40
2022-08-17T05:09:18.837Z,11.82
2022-08-17T05:11:47.162Z,16.55
2022-08-17T05:14:15.413Z,10.50
2022-08-17T05:16:43.291Z,11.00
2022-08-17T05:19:11.248Z,12.95
2022-08-17T05:21:39.147Z,12.32
2022-08-17T05:24:09.683Z,15.27
2022-08-17T05:26:54.829Z,11.88
2022-08-17T05:29:23.137Z,11.27
2022-08-17T05:32:39.284Z,11.80
2022-08-17T05:35:08.523Z,7.85
2022-08-17T05:37:36.413Z,12.98
2022-08-17T05:40:04.853Z,13.88
2022-08-17T05:42:32.737Z,18.08
2022-08-17T05:45:00.606Z,13.57
2022-08-17T05:47:30.421Z,11.23
2022-08-17T05:50:00.969Z,11.90
2022-08-17T05:53:16.012Z,11.82
2022-08-17T05:56:10.871Z,10.38
2022-08-17T05:59:19.902Z,9.57
2022-08-17T06:02:08.882Z,12.57
2022-08-17T06:04:53.126Z,10.80
2022-08-17T06:07:24.203Z,9.65
2022-08-17T06:10:17.144Z,11.55
2022-08-17T06:13:34.520Z,12.23
2022-08-17T06:16:33.393Z,10.98
2022-08-17T06:23:36.145Z,10.85
2022-08-17T06:26:13.908Z,12.18
2022-08-17T06:28:51.937Z,15.18
2022-08-17T06:31:27.520Z,12.25
2022-08-17T06:33:57.924Z,14.02
2022-08-17T06:37:03.777Z,10.68
2022-08-17T06:39:52.075Z,9.15
2022-08-17T06:43:02.137Z,16.48
2022-08-17T06:45:34.666Z,10.77
2022-08-17T06:48:24.898Z,10.88
2022-08-17T06:50:59.950Z,9.95
2022-08-17T06:54:00.834Z,10.23
2022-08-17T06:57:06.259Z,11.30
2022-08-17T06:59:58.640Z,11.00
2022-08-17T07:05:32.811Z,11.05
2022-08-17T07:12:34.240Z,11.25
2022-08-17T07:15:11.828Z,14.63
2022-08-17T07:17:47.170Z,13.32
2022-08-17T07:20:22.765Z,10.82
2022-08-17T07:23:00.600Z,10.68
2022-08-17T07:25:30.726Z,14.75
2022-08-17T07:28:02.486Z,11.32
2022-08-17T07:30:44.585Z,10.95
2022-08-17T07:33:23.776Z,7.20
2022-08-17T07:35:52.212Z,12.18
2022-08-17T07:38:29.281Z,12.68
2022-08-17T07:41:03.421Z,10.93
2022-08-17T07:43:40.013Z,14.57
2022-08-17T07:46:37.072Z,8.77
2022-08-17T07:49:07.644Z,8.93
2022-08-17T07:51:40.907Z,10.13
2022-08-17T07:54:23.629Z,12.48
2022-08-17T07:57:01.849Z,11.23
2022-08-17T07:59:36.128Z,13.57
2022-08-17T08:02:40.318Z,10.25
2022-08-17T08:10:04.434Z,10.88
2022-08-17T08:12:40.287Z,12.18
2022-08-17T08:15:25.640Z,10.57
2022-08-17T08:17:59.376Z,12.63
2022-08-17T08:20:53.890Z,14.88
2022-08-17T08:23:35.688Z,14.50
2022-08-17T08:26:21.428Z,12.40
2022-08-17T08:29:18.283Z,12.27
2022-08-17T08:32:06.366Z,11.80
2022-08-17T08:35:01.716Z,10.95
2022-08-17T08:37:52.682Z,12.57
2022-08-17T08:40:48.148Z,10.30
2022-08-17T08:43:27.638Z,13.18
2022-08-17T08:46:24.493Z,9.18
2022-08-17T08:49:19.803Z,11.88
2022-08-17T08:51:57.639Z,8.98
2022-08-17T08:54:38.983Z,18.63
2022-08-17T08:57:25.691Z,14.48
2022-08-17T09:00:26.536Z,12.05
2022-08-17T09:03:14.668Z,10.32
2022-08-17T09:05:53.577Z,11.02
2022-08-17T09:08:45.593Z,12.63
2022-08-17T09:12:01.411Z,12.88
2022-08-17T09:14:57.827Z,13.75
2022-08-17T09:17:31.842Z,12.43
2022-08-17T09:20:28.788Z,14.60
2022-08-17T09:23:08.049Z,12.10
2022-08-17T09:25:49.897Z,13.05
2022-08-17T09:28:20.901Z,14.05
2022-08-17T09:30:52.446Z,14.57
2022-08-17T09:33:26.247Z,14.75
2022-08-17T09:36:00.119Z,12.57
2022-08-17T09:38:48.362Z,12.45
2022-08-17T09:41:36.457Z,12.18
2022-08-17T09:44:47.146Z,11.80
2022-08-17T09:47:22.712Z,15.55
2022-08-17T09:49:55.257Z,14.63
2022-08-17T09:52:25.273Z,9.45
2022-08-17T09:54:55.904Z,11.60
2022-08-17T09:57:32.148Z,15.18
2022-08-17T10:00:19.030Z,14.52
2022-08-17T10:03:09.625Z,17.15
2022-08-17T10:05:46.682Z,11.73
2022-08-17T10:08:23.569Z,13.30
2022-08-17T10:11:11.641Z,10.85
2022-08-17T10:13:59.764Z,22.40
2022-08-17T10:16:27.591Z,10.52
2022-08-17T10:19:13.854Z,12.35
2022-08-17T10:22:32.519Z,12.50
2022-08-17T10:25:23.627Z,12.48
2022-08-17T10:27:59.869Z,11.07
2022-08-17T10:30:32.654Z,9.80
2022-08-17T10:33:04.987Z,11.18
2022-08-17T10:35:50.989Z,14.02
2022-08-17T10:38:31.135Z,11.98
2022-08-17T10:41:15.303Z,14.68
2022-08-17T10:44:40.272Z,13.40
2022-08-17T10:47:01.462Z,13.40
2022-08-17T10:49:40.730Z,10.80
2022-08-17T10:52:20.706Z,10.23
2022-08-17T10:55:06.388Z,14.63
2022-08-17T10:57:46.725Z,9.20
2022-08-17T11:00:24.270Z,11.48
2022-08-17T11:02:57.567Z,14.70
2022-08-17T11:06:02.303Z,8.25
2022-08-17T11:09:02.553Z,11.13
2022-08-17T11:11:47.651Z,12.27
2022-08-17T11:14:35.781Z,13.40
2022-08-17T11:17:24.558Z,15.20
2022-08-17T11:20:11.621Z,11.32
2022-08-17T11:22:39.678Z,12.00
2022-08-17T11:25:33.668Z,14.35
2022-08-17T11:28:22.292Z,12.38
2022-08-17T11:30:56.440Z,16.88
2022-08-17T11:33:45.338Z,12.48
2022-08-17T11:36:31.684Z,12.05
2022-08-17T11:39:23.434Z,12.07
2022-08-17T11:41:54.626Z,15.13
2022-08-17T11:44:45.941Z,17.67
2022-08-17T11:48:23.798Z,12.05
2022-08-17T11:51:05.450Z,11.93
2022-08-17T11:53:37.193Z,26.33
2022-08-17T11:56:06.684Z,13.40
2022-08-17T11:58:38.639Z,14.73
2022-08-17T12:03:54.251Z,14.40
2022-08-17T12:06:34.419Z,14.63
2022-08-17T12:09:18.930Z,14.43
2022-08-17T12:12:12.158Z,13.73
2022-08-17T12:15:09.558Z,14.93
2022-08-17T12:17:40.814Z,10.85
2022-08-17T12:20:29.966Z,18.30
2022-08-17T12:23:18.489Z,13.20
2022-08-17T12:25:58.112Z,20.50
2022-08-17T12:28:30.393Z,12.85
2022-08-17T12:31:08.142Z,12.57
2022-08-17T12:33:42.751Z,11.40
2022-08-17T12:36:15.226Z,13.48
2022-08-17T12:38:57.326Z,10.68
2022-08-17T12:41:36.884Z,13.35
2022-08-17T12:44:13.955Z,14.10
2022-08-17T12:46:49.438Z,9.95
2022-08-17T12:49:36.505Z,14.45
2022-08-17T12:52:15.729Z,18.10
2022-08-17T12:54:50.807Z,12.32
2022-08-17T12:57:23.070Z,12.07
2022-08-17T13:00:00.948Z,15.65
2022-08-17T13:02:43.601Z,17.05
2022-08-17T13:05:27.744Z,15.05
2022-08-17T13:07:58.879Z,16.70
2022-08-17T13:10:33.490Z,15.23
2022-08-17T13:13:17.712Z,13.40
2022-08-17T13:16:00.974Z,15.60
2022-08-17T13:18:40.885Z,17.95
2022-08-17T13:21:30.688Z,16.58
2022-08-17T13:24:13.818Z,15.05
2022-08-17T13:26:51.581Z,16.83
2022-08-17T13:29:35.130Z,21.23
2022-08-17T13:32:13.013Z,17.13
2022-08-17T13:35:11.912Z,19.35
2022-08-17T13:37:37.380Z,12.90
2022-08-17T13:40:11.169Z,14.93
2022-08-17T13:42:55.979Z,15.05
2022-08-17T13:45:39.504Z,16.30
2022-08-17T13:48:07.673Z,18.98
2022-08-17T13:50:55.552Z,13.43
2022-08-17T13:53:25.981Z,17.15
2022-08-17T13:56:33.333Z,18.98
2022-08-17T13:59:00.569Z,14.43
2022-08-17T14:01:53.780Z,16.13
2022-08-17T14:04:25.833Z,15.25
2022-08-17T14:07:11.757Z,14.05
2022-08-17T14:09:53.316Z,16.67
2022-08-17T14:12:27.373Z,13.50
2022-08-17T14:14:56.383Z,18.83
2022-08-17T14:17:25.545Z,14.25
2022-08-17T14:19:53.400Z,15.90
2022-08-17T14:22:30.672Z,13.57
2022-08-17T14:25:03.349Z,19.70
2022-08-17T14:27:34.107Z,17.88
2022-08-17T14:30:22.735Z,17.00
2022-08-17T14:32:52.174Z,16.17
2022-08-17T14:35:22.661Z,11.52
2022-08-17T14:37:52.568Z,15.90
2022-08-17T14:40:22.681Z,17.77
2022-08-17T14:42:51.531Z,15.10
2022-08-17T14:45:31.621Z,17.50
2022-08-17T14:48:04.294Z,17.38
2022-08-17T14:50:35.275Z,18.02
2022-08-17T14:53:06.520Z,19.33
2022-08-17T14:55:36.830Z,14.32
2022-08-17T14:58:04.665Z,16.67
2022-08-17T15:00:33.201Z,13.50
2022-08-17T15:03:03.180Z,16.00
2022-08-17T15:05:34.106Z,11.82
2022-08-17T15:08:03.068Z,11.63
2022-08-17T15:10:31.533Z,15.80
2022-08-17T15:13:00.242Z,13.00
2022-08-17T15:15:28.754Z,13.85
2022-08-17T15:18:00.012Z,18.25
2022-08-17T15:20:29.967Z,14.88
2022-08-17T15:22:59.421Z,21.33
2022-08-17T15:25:30.633Z,16.13
2022-08-17T15:27:59.797Z,22.33
2022-08-17T15:30:28.409Z,15.05
2022-08-17T15:32:57.737Z,13.65
2022-08-17T15:35:29.216Z,18.30
2022-08-17T15:38:11.789Z,13.30
2022-08-17T15:40:44.944Z,14.20
2022-08-17T15:43:23.304Z,15.25
2022-08-17T15:46:04.539Z,17.27
2022-08-17T15:48:43.749Z,17.20
2022-08-17T15:51:11.830Z,15.85
2022-08-17T15:53:40.483Z,17.33
2022-08-17T15:56:08.444Z,14.82
2022-08-17T15:58:38.044Z,13.55
2022-08-17T16:01:14.996Z,16.17
2022-08-17T16:04:04.803Z,17.50
2022-08-17T16:06:38.731Z,16.23
2022-08-17T16:09:06.563Z,18.43
2022-08-17T16:11:34.457Z,19.77
2022-08-17T16:14:02.352Z,14.35
2022-08-17T16:16:31.350Z,15.68
2022-08-17T16:18:59.444Z,16.30
2022-08-17T16:21:27.593Z,21.45
2022-08-17T16:24:02.782Z,18.27
2022-08-17T16:26:32.945Z,15.93
2022-08-17T16:29:03.780Z,14.27
2022-08-17T16:31:32.483Z,15.48
2022-08-17T16:34:16.986Z,20.52
2022-08-17T16:36:55.044Z,11.85
2022-08-17T16:39:26.659Z,20.75
2022-08-17T16:41:56.105Z,21.80
2022-08-17T16:44:25.761Z,24.73
2022-08-17T16:46:53.600Z,16.85
2022-08-17T16:49:36.260Z,14.18
2022-08-17T16:52:10.122Z,17.50
2022-08-17T16:54:44.120Z,20.10
2022-08-17T16:57:14.110Z,16.35
2022-08-17T16:59:47.457Z,14.02
2022-08-17T17:02:26.165Z,17.80
2022-08-17T17:05:22.695Z,18.13
2022-08-17T17:08:14.148Z,15.10
2022-08-17T17:10:55.776Z,17.17
2022-08-17T17:13:30.819Z,19.75
2022-08-17T17:16:23.705Z,18.88
2022-08-17T17:19:27.683Z,18.13
2022-08-17T17:22:16.682Z,21.50
2022-08-17T17:25:01.748Z,17.67
2022-08-17T17:27:50.172Z,20.10
2022-08-17T17:30:42.735Z,23.55
2022-08-17T17:33:24.793Z,23.13
2022-08-17T17:36:01.888Z,18.63
2022-08-17T17:38:40.524Z,26.00
2022-08-17T17:41:25.350Z,22.05
2022-08-17T17:44:12.966Z,18.42
2022-08-17T17:47:06.028Z,19.20
2022-08-17T17:49:39.851Z,23.85
2022-08-17T17:52:31.711Z,21.48
2022-08-17T17:55:23.784Z,24.90
2022-08-17T17:58:14.794Z,30.20
2022-08-17T18:01:14.933Z,19.50
2022-08-17T18:04:01.557Z,22.35
2022-08-17T18:07:05.053Z,27.85
2022-08-17T18:10:01.510Z,16.27
2022-08-17T18:13:05.457Z,21.80
2022-08-17T18:15:41.192Z,25.02
2022-08-17T18:18:31.158Z,20.75
2022-08-17T18:21:06.055Z,24.50
2022-08-17T18:23:34.471Z,22.13
2022-08-17T18:26:02.730Z,20.50
2022-08-17T18:28:32.801Z,16.17
2022-08-17T18:31:17.608Z,18.95
2022-08-17T18:33:51.587Z,21.73
2022-08-17T18:36:31.346Z,59.00
2022-08-17T18:39:27.696Z,48.63
2022-08-17T18:41:58.585Z,57.22
2022-08-17T18:44:34.242Z,53.65
2022-08-17T18:47:22.157Z,35.20
2022-08-17T18:49:58.830Z,38.67
2022-08-17T18:52:31.078Z,28.00
2022-08-17T18:55:10.421Z,32.10
2022-08-17T18:57:43.031Z,26.15
2022-08-17T19:00:31.634Z,29.33
2022-08-17T19:03:16.024Z,23.40
2022-08-17T19:05:51.918Z,22.92
2022-08-17T19:08:28.785Z,21.88
2022-08-17T19:11:09.722Z,21.92
2022-08-17T19:13:47.596Z,17.92
2022-08-17T19:16:34.033Z,19.33
2022-08-17T19:19:25.016Z,21.60
2022-08-17T19:22:00.595Z,17.35
2022-08-17T19:24:32.729Z,16.48
2022-08-17T19:27:13.534Z,23.20
2022-08-17T19:30:08.393Z,17.35
2022-08-17T19:32:36.635Z,21.02
2022-08-17T19:35:07.312Z,19.83
2022-08-17T19:38:00.794Z,17.95
2022-08-17T19:40:51.799Z,22.17
2022-08-17T19:43:48.056Z,17.90
2022-08-17T19:46:59.585Z,17.13
2022-08-17T19:49:33.161Z,20.55
2022-08-17T19:52:30.117Z,19.95
2022-08-17T19:55:32.072Z,19.75
2022-08-17T19:58:06.911Z,20.33
2022-08-17T20:00:51.320Z,18.98
2022-08-17T20:03:32.005Z,18.17
2022-08-17T20:06:12.952Z,19.27
2022-08-17T20:08:56.910Z,15.18
2022-08-17T20:11:32.999Z,19.55
2022-08-17T20:14:21.264Z,21.83
2022-08-17T20:16:49.315Z,20.52
2022-08-17T20:19:40.032Z,17.10
2022-08-17T20:22:17.634Z,19.23
2022-08-17T20:24:51.338Z,14.80
2022-08-17T20:27:31.637Z,18.52
2022-08-17T20:30:29.973Z,17.83
2022-08-17T20:32:59.439Z,19.27
2022-08-17T20:35:33.434Z,22.30
2022-08-17T20:38:05.449Z,18.83
2022-08-17T20:41:01.162Z,19.90
2022-08-17T20:43:37.335Z,20.02
2022-08-17T20:46:10.782Z,19.35
2022-08-17T20:48:44.392Z,15.27
2022-08-17T20:51:54.555Z,17.92
2022-08-17T20:54:52.873Z,16.80
2022-08-17T20:57:33.144Z,12.55
2022-08-17T21:00:16.441Z,18.60
2022-08-17T21:03:12.122Z,16.35
2022-08-17T21:06:00.779Z,19.58
2022-08-17T21:08:46.300Z,21.67
2022-08-17T21:12:03.033Z,17.00
2022-08-17T21:14:32.078Z,19.10
2022-08-17T21:17:22.309Z,14.98
2022-08-17T21:20:17.116Z,15.43
2022-08-17T21:23:03.102Z,17.83
2022-08-17T21:26:08.488Z,15.38
2022-08-17T21:29:00.742Z,14.82
2022-08-17T21:34:26.580Z,15.32
2022-08-17T21:36:56.652Z,19.45
2022-08-17T21:39:39.301Z,19.33
2022-08-17T21:42:08.761Z,20.40
2022-08-17T21:44:49.348Z,18.15
2022-08-17T21:47:24.774Z,19.00
2022-08-17T21:49:54.018Z,19.90
2022-08-17T21:52:26.897Z,17.70
2022-08-17T21:55:02.421Z,23.50
2022-08-17T21:57:35.009Z,18.88
2022-08-17T22:00:15.825Z,16.38
2022-08-17T22:02:52.903Z,23.48
2022-08-17T22:05:31.568Z,19.90
2022-08-17T22:08:08.846Z,23.67
2022-08-17T22:10:49.097Z,16.50
2022-08-17T22:13:24.175Z,20.77
2022-08-17T22:16:28.440Z,20.92
2022-08-17T22:18:59.221Z,17.25
2022-08-17T22:21:27.492Z,20.35
2022-08-17T22:24:06.311Z,19.23
2022-08-17T22:27:13.835Z,21.10
2022-08-17T22:29:57.371Z,17.85
2022-08-17T22:32:39.475Z,17.88
2022-08-17T22:35:26.270Z,24.25
2022-08-17T22:37:54.337Z,21.13
2022-08-17T22:40:30.445Z,15.93
2022-08-17T22:43:00.596Z,17.80
2022-08-17T22:45:33.571Z,18.20
2022-08-17T22:48:02.162Z,20.58
2022-08-17T22:50:31.611Z,17.48
2022-08-17T22:53:20.940Z,19.85
2022-08-17T22:56:13.113Z,18.67
2022-08-17T22:59:18.360Z,22.83
2022-08-17T23:02:14.162Z,21.25
2022-08-17T23:04:49.669Z,20.88
2022-08-17T23:07:18.772Z,17.45
2022-08-17T23:09:46.684Z,14.93
2022-08-17T23:12:21.696Z,19.30
2022-08-17T23:14:51.504Z,17.90
2022-08-17T23:17:19.449Z,18.08
2022-08-17T23:19:47.291Z,22.10
2022-08-17T23:22:15.140Z,21.08
2022-08-17T23:24:46.408Z,16.80
2022-08-17T23:27:14.502Z,21.33
2022-08-17T23:29:42.828Z,19.58
2022-08-17T23:32:14.806Z,20.95
2022-08-17T23:34:44.200Z,14.77
2022-08-17T23:37:13.659Z,19.52
2022-08-17T23:39:44.672Z,21.33
2022-08-17T23:42:21.682Z,22.00
2022-08-17T23:44:50.007Z,16.40
2022-08-17T23:47:17.973Z,17.17
2022-08-17T23:49:45.774Z,22.95
2022-08-17T23:52:16.451Z,19.13
2022-08-17T23:54:47.175Z,18.70
2022-08-17T23:57:20.410Z,20.50
